Terminal Aerodrome Forecast
Issued by NWS

Home | Current Version | Previous Version | Text Only | Print | Product List | Glossary On
Versions: 1 2 3 4 5 6 7 8 9 10 11 12 13 14 15 16 17 18 19
000
FTUS45 KTFX 172334
TAFLWT
TAF
KLWT 172334Z 1800/1824 21008KT P6SM FEW060 SCT250
     FM180200 21009KT P6SM BKN050 BKN250
     FM181800 22015G24KT P6SM BKN035 BKN250=

USA.gov is the U.S. government's official web portal to all federal, state and local government web resources and services.